Time;durP1;ratioP1;P1;durP2;ratioP2;P2;SDS_P1;SDS_P2;PMS_P1;PMS_P2;Temp;Humidity;BMP_temperature;BMP_pressure;BME280_temperature;BME280_humidity;BME280_pressure;Samples;Min_cycle;Max_cycle;Signal;HPM_P1;HPM_P2
2022/06/04 00:01:34;;;;;;;5.40;3.17;;;21.90;52.60;;;;;;5074559;28;20522;-66
2022/06/04 00:04:01;;;;;;;3.17;2.97;;;21.80;52.60;;;;;;5074074;28;20849;-66
2022/06/04 00:06:28;;;;;;;3.80;2.60;;;21.80;52.60;;;;;;5074878;28;20578;-66
2022/06/04 00:08:55;;;;;;;3.70;3.40;;;21.80;52.80;;;;;;5074671;28;20441;-66
2022/06/04 00:16:52;;;;;;;2.90;2.70;;;21.70;53.10;;;;;;5074215;28;20773;-66
2022/06/04 00:19:19;;;;;;;2.97;2.50;;;21.70;53.10;;;;;;5074143;28;20449;-66
2022/06/04 00:21:48;;;;;;;2.60;2.40;;;21.60;53.10;;;;;;5074274;28;20937;-66
2022/06/04 00:24:15;;;;;;;4.77;2.37;;;21.60;53.20;;;;;;5073779;28;20890;-66
2022/06/04 00:26:42;;;;;;;3.30;3.00;;;21.60;53.40;;;;;;5074166;28;20440;-66
2022/06/04 00:29:12;;;;;;;2.63;2.43;;;21.60;53.60;;;;;;5074159;28;20459;-66
2022/06/04 00:31:39;;;;;;;4.10;2.40;;;21.60;53.60;;;;;;5074074;28;20436;-66
2022/06/04 00:34:06;;;;;;;3.30;2.60;;;21.50;53.70;;;;;;5073985;28;20441;-66
2022/06/04 00:36:34;;;;;;;3.20;2.90;;;21.50;53.90;;;;;;5074087;28;20536;-66
2022/06/04 00:39:01;;;;;;;4.03;2.80;;;21.50;54.10;;;;;;5073870;28;20807;-66
2022/06/04 00:41:37;;;;;;;3.47;2.73;;;21.50;54.10;;;;;;5073876;28;20465;-66
2022/06/04 00:44:39;;;;;;;2.90;2.60;;;21.40;54.10;;;;;;5073949;28;20461;-66
2022/06/04 00:47:21;;;;;;;3.37;2.23;;;21.40;54.10;;;;;;5033224;28;20440;-65
2022/06/04 00:49:48;;;;;;;3.17;2.13;;;21.40;54.30;;;;;;5073805;28;20470;-65
2022/06/04 00:52:17;;;;;;;4.03;2.60;;;21.30;54.50;;;;;;5073753;28;20464;-65
2022/06/04 00:54:45;;;;;;;4.63;2.30;;;21.30;54.70;;;;;;5073339;28;20475;-65
2022/06/04 00:57:31;;;;;;;4.10;2.93;;;21.30;54.90;;;;;;5073337;28;20968;-65
2022/06/04 01:00:05;;;;;;;3.40;2.90;;;21.30;55.00;;;;;;5073606;28;20456;-66
2022/06/04 01:02:45;;;;;;;3.47;2.67;;;21.20;54.90;;;;;;5073284;28;20787;-65
2022/06/04 01:05:24;;;;;;;2.50;2.30;;;21.20;55.00;;;;;;5073537;28;20472;-65
2022/06/04 01:08:18;;;;;;;2.43;2.30;;;21.20;55.10;;;;;;5072369;28;20435;-65
2022/06/04 01:10:56;;;;;;;5.17;2.70;;;21.10;55.20;;;;;;5071617;28;21005;-65
2022/06/04 01:13:37;;;;;;;4.53;2.83;;;21.10;55.50;;;;;;5073476;28;20494;-65
2022/06/04 01:16:12;;;;;;;4.53;2.77;;;21.10;55.40;;;;;;5073481;28;20441;-65
2022/06/04 01:18:50;;;;;;;2.70;2.53;;;21.10;55.60;;;;;;5073602;28;20435;-65
2022/06/04 01:21:24;;;;;;;3.30;2.77;;;21.00;55.60;;;;;;5073445;28;20501;-65
2022/06/04 01:24:19;;;;;;;3.03;2.63;;;21.00;55.70;;;;;;5073382;28;20464;-65
2022/06/04 01:26:57;;;;;;;3.70;2.63;;;21.00;55.90;;;;;;5073448;28;20806;-65
2022/06/04 01:29:31;;;;;;;2.67;2.33;;;21.00;56.10;;;;;;5073425;28;20440;-65
2022/06/04 01:32:04;;;;;;;4.30;2.83;;;21.00;56.30;;;;;;5073122;28;20906;-65
2022/06/04 01:34:35;;;;;;;6.37;2.67;;;20.90;56.20;;;;;;5073583;28;20421;-65
2022/06/04 01:37:08;;;;;;;2.80;2.60;;;20.90;56.30;;;;;;5073746;28;20433;-65
2022/06/04 01:42:23;;;;;;;3.77;3.37;;;20.90;56.30;;;;;;5072482;28;20436;-65
2022/06/04 01:44:50;;;;;;;3.17;2.40;;;20.90;56.50;;;;;;5073690;28;20469;-65
2022/06/04 01:47:19;;;;;;;3.07;2.50;;;20.80;56.50;;;;;;5074251;28;20455;-65
2022/06/04 01:49:50;;;;;;;2.63;2.43;;;20.80;56.60;;;;;;5073855;28;20478;-66
2022/06/04 01:52:21;;;;;;;4.03;2.63;;;20.80;56.70;;;;;;5074121;28;20473;-66
2022/06/04 01:54:51;;;;;;;4.90;2.87;;;20.80;56.90;;;;;;5073605;28;20487;-66
2022/06/04 01:57:23;;;;;;;3.43;2.70;;;20.80;56.70;;;;;;5073024;28;20449;-66
2022/06/04 01:59:53;;;;;;;3.90;2.57;;;20.80;56.90;;;;;;5072690;28;20471;-66
2022/06/04 02:02:25;;;;;;;4.97;2.30;;;20.70;56.90;;;;;;5073146;28;20425;-66
2022/06/04 02:04:57;;;;;;;2.97;2.70;;;20.70;56.90;;;;;;5072938;28;20480;-66
2022/06/04 02:07:32;;;;;;;2.50;2.30;;;20.70;57.10;;;;;;5073316;28;20436;-65
2022/06/04 02:10:05;;;;;;;6.17;2.40;;;20.70;57.30;;;;;;5073673;28;20861;-66
2022/06/04 02:12:34;;;;;;;3.87;2.70;;;20.70;57.20;;;;;;5074545;28;20437;-66
2022/06/04 02:15:05;;;;;;;3.20;2.60;;;20.60;57.10;;;;;;5074635;28;20442;-66
2022/06/04 02:17:33;;;;;;;3.40;3.10;;;20.60;57.00;;;;;;5073039;28;20530;-66
2022/06/04 02:20:00;;;;;;;8.03;3.00;;;20.60;57.20;;;;;;5076259;28;20466;-66
2022/06/04 02:22:27;;;;;;;2.60;2.40;;;20.60;57.30;;;;;;5076566;28;20444;-66
2022/06/04 02:24:54;;;;;;;4.60;3.10;;;20.60;57.60;;;;;;5076465;28;20529;-66
2022/06/04 02:27:20;;;;;;;3.23;2.90;;;20.50;57.80;;;;;;5076376;28;20452;-66
2022/06/04 02:29:49;;;;;;;2.83;2.53;;;20.50;57.70;;;;;;5076345;28;20464;-66
2022/06/04 02:32:23;;;;;;;4.27;2.87;;;20.50;57.70;;;;;;5076384;28;20448;-66
2022/06/04 02:34:59;;;;;;;2.80;2.60;;;20.50;57.90;;;;;;5076330;28;20444;-66
2022/06/04 02:37:39;;;;;;;3.37;3.17;;;20.40;58.00;;;;;;5076511;28;20475;-66
2022/06/04 02:40:10;;;;;;;3.03;2.70;;;20.40;58.00;;;;;;5075853;28;20999;-66
2022/06/04 02:42:44;;;;;;;4.33;2.40;;;20.30;58.00;;;;;;5076256;28;20518;-66
2022/06/04 02:45:17;;;;;;;4.10;2.83;;;20.30;58.40;;;;;;5076915;28;20493;-66
2022/06/04 02:47:48;;;;;;;3.33;3.07;;;20.30;58.40;;;;;;5076051;28;20786;-66
2022/06/04 02:50:19;;;;;;;4.50;3.33;;;20.20;58.30;;;;;;5076002;28;20835;-66
2022/06/04 02:52:47;;;;;;;2.87;2.43;;;20.20;58.50;;;;;;5076037;28;20429;-66
2022/06/04 02:55:17;;;;;;;4.63;2.60;;;20.20;58.70;;;;;;5075633;28;20447;-66
2022/06/04 02:57:48;;;;;;;5.73;2.93;;;20.10;58.70;;;;;;5075724;28;20463;-66
2022/06/04 03:00:18;;;;;;;3.10;2.83;;;20.10;59.00;;;;;;5075890;28;20824;-66
2022/06/04 03:02:46;;;;;;;9.17;3.10;;;20.10;59.20;;;;;;5075816;28;20436;-66
2022/06/04 03:05:18;;;;;;;5.93;3.70;;;20.10;59.30;;;;;;5075387;28;21004;-66
2022/06/04 03:07:47;;;;;;;4.13;3.60;;;20.10;59.50;;;;;;5075624;28;20467;-66
2022/06/04 03:10:18;;;;;;;3.20;2.87;;;20.00;59.50;;;;;;5075609;28;20468;-66
2022/06/04 03:12:45;;;;;;;3.67;3.37;;;20.00;59.60;;;;;;5075625;28;20429;-66
2022/06/04 03:15:12;;;;;;;3.87;3.57;;;20.00;59.80;;;;;;5075534;28;20443;-66
2022/06/04 03:17:42;;;;;;;7.00;3.83;;;20.00;59.90;;;;;;5075461;28;20447;-65
2022/06/04 03:20:11;;;;;;;5.43;3.30;;;19.90;59.90;;;;;;5075248;28;20475;-65
2022/06/04 03:22:38;;;;;;;3.60;3.30;;;19.90;60.10;;;;;;5075372;28;20452;-65
2022/06/04 03:25:06;;;;;;;3.60;3.30;;;19.80;60.20;;;;;;5075441;28;20472;-66
2022/06/04 03:27:33;;;;;;;3.60;3.30;;;19.80;60.70;;;;;;5075326;28;20449;-66
2022/06/04 03:30:00;;;;;;;4.23;3.30;;;19.80;61.20;;;;;;5073875;28;20928;-66
2022/06/04 03:32:27;;;;;;;6.23;3.43;;;19.70;61.30;;;;;;5075192;28;20444;-65
2022/06/04 03:34:56;;;;;;;3.70;3.40;;;19.70;61.50;;;;;;5075176;28;20464;-66
2022/06/04 03:37:22;;;;;;;5.10;3.67;;;19.70;61.80;;;;;;5075133;28;20816;-66
2022/06/04 03:39:49;;;;;;;3.53;3.00;;;19.70;62.00;;;;;;5075262;28;20460;-66
2022/06/04 03:42:16;;;;;;;4.90;3.23;;;19.70;62.20;;;;;;5074902;28;20450;-66
2022/06/04 03:44:47;;;;;;;6.33;4.10;;;19.60;62.10;;;;;;5074758;28;20499;-66
2022/06/04 03:47:16;;;;;;;5.00;3.53;;;19.60;62.30;;;;;;5074925;28;20550;-66
2022/06/04 03:49:43;;;;;;;5.13;4.13;;;19.60;62.60;;;;;;5074808;28;20468;-66
2022/06/04 03:52:11;;;;;;;3.90;3.27;;;19.60;62.80;;;;;;5074815;28;20456;-66
2022/06/04 03:54:53;;;;;;;8.00;5.03;;;19.60;63.20;;;;;;5074672;28;20547;-66
2022/06/04 04:00:06;;;;;;;4.10;3.50;;;19.60;63.60;;;;;;5074844;28;20479;-66
2022/06/04 04:02:33;;;;;;;7.23;3.73;;;19.50;63.70;;;;;;5074203;28;20960;-66
2022/06/04 04:05:00;;;;;;;4.27;3.97;;;19.50;63.90;;;;;;5074177;28;20481;-66
2022/06/04 04:07:28;;;;;;;4.60;4.20;;;19.50;64.10;;;;;;5074579;28;20456;-66
2022/06/04 04:09:55;;;;;;;4.90;4.00;;;19.50;64.40;;;;;;5074137;28;20989;-66
2022/06/04 04:12:22;;;;;;;9.13;4.40;;;19.50;64.50;;;;;;5074335;28;20455;-66
2022/06/04 04:14:48;;;;;;;6.40;3.70;;;19.50;64.50;;;;;;5074379;28;20462;-66
2022/06/04 04:17:15;;;;;;;3.83;3.53;;;19.50;64.80;;;;;;5073968;28;20934;-66
2022/06/04 04:19:42;;;;;;;4.67;3.67;;;19.50;64.90;;;;;;5074216;28;20825;-66
2022/06/04 04:22:09;;;;;;;3.37;3.10;;;19.50;65.10;;;;;;5074248;28;20452;-66
2022/06/04 04:24:37;;;;;;;5.17;3.40;;;19.50;65.20;;;;;;5074099;28;20476;-66
2022/06/04 04:27:04;;;;;;;3.83;3.47;;;19.50;65.40;;;;;;5074074;28;20444;-66
2022/06/04 04:29:31;;;;;;;4.30;4.00;;;19.50;65.40;;;;;;5073956;28;20942;-66
2022/06/04 04:31:58;;;;;;;5.60;3.37;;;19.50;66.20;;;;;;5074086;28;20449;-66
2022/06/04 04:34:25;;;;;;;3.77;3.30;;;19.50;65.50;;;;;;5073935;28;20444;-66
2022/06/04 04:36:51;;;;;;;5.30;3.73;;;19.60;65.60;;;;;;5073645;28;20870;-65
2022/06/04 04:39:18;;;;;;;6.90;3.90;;;19.60;65.50;;;;;;5074193;28;20441;-66
2022/06/04 04:41:46;;;;;;;3.70;3.40;;;19.60;65.30;;;;;;5073781;28;20448;-66
2022/06/04 04:44:13;;;;;;;5.67;3.57;;;19.60;65.60;;;;;;5074445;28;20484;-66
2022/06/04 04:46:40;;;;;;;4.17;3.47;;;19.60;65.90;;;;;;5074846;28;20448;-66
2022/06/04 04:49:07;;;;;;;5.33;4.20;;;19.70;65.90;;;;;;5075466;28;20451;-66
2022/06/04 04:51:34;;;;;;;3.87;3.47;;;19.70;65.70;;;;;;5074501;28;20475;-65
2022/06/04 04:54:02;;;;;;;3.90;3.60;;;19.70;65.70;;;;;;5073714;28;20448;-65
2022/06/04 04:56:29;;;;;;;4.70;4.30;;;19.80;65.70;;;;;;5073744;28;20444;-66
2022/06/04 04:58:57;;;;;;;3.70;3.40;;;19.80;65.90;;;;;;5073314;28;20832;-66
2022/06/04 05:01:28;;;;;;;4.13;3.50;;;19.80;65.90;;;;;;5073586;28;20495;-66
2022/06/04 05:03:55;;;;;;;4.90;3.77;;;19.90;66.00;;;;;;5073655;28;20436;-66
2022/06/04 05:06:23;;;;;;;3.47;3.27;;;19.90;65.50;;;;;;5073534;28;20514;-66
2022/06/04 05:08:52;;;;;;;3.87;3.40;;;20.00;65.60;;;;;;5073534;28;20444;-66
2022/06/04 05:11:22;;;;;;;4.03;3.57;;;20.00;64.90;;;;;;5073548;28;20551;-66
2022/06/04 05:13:49;;;;;;;7.40;4.53;;;20.10;64.90;;;;;;5073755;28;20445;-66
2022/06/04 05:16:18;;;;;;;3.20;2.80;;;20.10;64.70;;;;;;5073436;28;20444;-66
2022/06/04 05:18:45;;;;;;;4.70;3.87;;;20.20;64.70;;;;;;5073517;28;20548;-66
2022/06/04 05:21:19;;;;;;;4.37;3.97;;;20.20;64.60;;;;;;5073402;28;20464;-66
2022/06/04 05:23:45;;;;;;;6.97;4.27;;;20.20;65.20;;;;;;5073846;28;20433;-66
2022/06/04 05:26:12;;;;;;;7.23;4.30;;;20.20;64.20;;;;;;5073794;28;20483;-66
2022/06/04 05:28:39;;;;;;;4.80;4.13;;;20.30;64.30;;;;;;5074052;28;20448;-66
2022/06/04 05:31:06;;;;;;;3.70;3.40;;;20.30;64.20;;;;;;5074113;28;20467;-66
2022/06/04 05:33:34;;;;;;;3.93;3.63;;;20.40;64.50;;;;;;5074592;28;20444;-66
2022/06/04 05:36:01;;;;;;;5.60;3.50;;;20.40;64.40;;;;;;5074166;28;20441;-66
2022/06/04 05:38:27;;;;;;;4.30;3.90;;;20.50;64.30;;;;;;5073597;28;20451;-66
2022/06/04 05:40:59;;;;;;;6.13;4.37;;;20.50;64.50;;;;;;5073382;28;20479;-66
2022/06/04 05:43:27;;;;;;;4.43;4.03;;;20.60;64.40;;;;;;5073264;28;20448;-66
2022/06/04 05:45:58;;;;;;;4.27;3.60;;;20.60;65.10;;;;;;5073047;28;20487;-67
2022/06/04 05:48:25;;;;;;;3.60;3.30;;;20.70;64.10;;;;;;5073372;28;20425;-66
2022/06/04 05:50:55;;;;;;;4.90;4.50;;;20.80;63.90;;;;;;5072949;28;20839;-66
2022/06/04 05:53:22;;;;;;;3.43;3.23;;;20.80;63.90;;;;;;5074399;28;20429;-66
2022/06/04 05:55:49;;;;;;;5.17;4.47;;;20.90;63.90;;;;;;5076890;28;20817;-66
2022/06/04 05:58:16;;;;;;;4.10;3.60;;;21.00;63.40;;;;;;5076778;28;20453;-66
2022/06/04 06:00:44;;;;;;;3.67;3.37;;;21.00;63.20;;;;;;5076915;28;20559;-66
2022/06/04 06:03:11;;;;;;;4.60;3.80;;;21.10;63.20;;;;;;5076540;28;20960;-66
2022/06/04 06:05:42;;;;;;;3.30;3.10;;;21.10;63.00;;;;;;5076782;28;20838;-66
2022/06/04 06:08:11;;;;;;;4.60;4.20;;;21.20;62.40;;;;;;5076344;28;20957;-66
2022/06/04 06:10:42;;;;;;;9.10;4.03;;;21.30;62.30;;;;;;5076270;28;20468;-67
2022/06/04 06:13:09;;;;;;;4.07;3.67;;;21.40;62.30;;;;;;5076449;28;20815;-66
2022/06/04 06:15:36;;;;;;;4.10;3.80;;;21.40;62.50;;;;;;5076760;28;20451;-66
2022/06/04 06:18:03;;;;;;;3.63;3.33;;;21.50;62.30;;;;;;5076597;28;20451;-67
2022/06/04 06:20:31;;;;;;;6.93;3.90;;;21.60;61.90;;;;;;5076646;28;20461;-66
2022/06/04 06:22:58;;;;;;;5.50;5.00;;;21.70;61.60;;;;;;5076286;28;20436;-66
2022/06/04 06:25:26;;;;;;;6.20;4.27;;;21.70;61.40;;;;;;5076336;28;20480;-67
2022/06/04 06:27:53;;;;;;;4.10;3.77;;;21.80;60.90;;;;;;5076429;28;20448;-67
2022/06/04 06:30:20;;;;;;;4.17;3.77;;;21.90;60.50;;;;;;5076470;28;20468;-66
2022/06/04 06:32:47;;;;;;;5.43;4.00;;;22.00;60.20;;;;;;5076382;28;20444;-66
2022/06/04 06:35:14;;;;;;;4.50;4.10;;;22.10;60.10;;;;;;5076221;28;20447;-66
2022/06/04 06:37:41;;;;;;;4.90;4.00;;;22.10;60.10;;;;;;5076252;28;20444;-66
2022/06/04 06:40:09;;;;;;;5.07;4.40;;;22.20;59.60;;;;;;5076191;28;20518;-66
2022/06/04 06:42:37;;;;;;;4.47;4.07;;;22.30;59.00;;;;;;5076279;28;20836;-67
2022/06/04 06:45:05;;;;;;;5.23;4.80;;;22.30;58.80;;;;;;5075921;28;20844;-66
2022/06/04 06:47:33;;;;;;;4.23;3.80;;;22.40;58.90;;;;;;5076051;28;20463;-66
2022/06/04 06:50:00;;;;;;;5.87;4.00;;;22.50;58.90;;;;;;5075780;28;20518;-66
2022/06/04 06:52:27;;;;;;;5.97;4.57;;;22.50;58.80;;;;;;5076049;28;20452;-66
2022/06/04 06:54:54;;;;;;;7.07;4.50;;;22.60;58.70;;;;;;5075889;28;20531;-66
2022/06/04 06:57:21;;;;;;;4.17;3.77;;;22.70;58.40;;;;;;5075836;28;20802;-66
2022/06/04 06:59:49;;;;;;;4.60;4.27;;;22.80;58.70;;;;;;5075890;28;20464;-66
2022/06/04 07:02:16;;;;;;;4.87;4.10;;;22.90;58.00;;;;;;5075541;28;20930;-66
2022/06/04 07:04:43;;;;;;;5.17;4.23;;;22.90;57.90;;;;;;5075534;28;20445;-66
2022/06/04 07:07:11;;;;;;;4.10;3.57;;;23.00;57.90;;;;;;5075837;28;20448;-66
2022/06/04 07:09:41;;;;;;;5.10;3.70;;;23.10;57.50;;;;;;5075637;28;20460;-66
2022/06/04 07:12:10;;;;;;;7.33;4.13;;;23.30;57.50;;;;;;5075578;28;20445;-66
2022/06/04 07:14:37;;;;;;;4.97;3.90;;;23.30;57.00;;;;;;5075631;28;20451;-66
2022/06/04 07:17:07;;;;;;;6.10;4.03;;;23.40;56.90;;;;;;5075455;28;20447;-66
2022/06/04 07:19:34;;;;;;;4.93;4.63;;;23.50;56.40;;;;;;5075589;28;20453;-66
2022/06/04 07:22:00;;;;;;;6.10;4.23;;;23.60;56.10;;;;;;5076432;28;20433;-66
2022/06/04 07:24:27;;;;;;;6.23;4.13;;;23.70;56.00;;;;;;5076872;28;20779;-66
2022/06/04 07:26:55;;;;;;;4.33;3.93;;;23.70;55.90;;;;;;5077595;28;20480;-66
2022/06/04 07:29:22;;;;;;;4.97;4.47;;;23.80;56.10;;;;;;5075420;28;20468;-67
2022/06/04 07:31:49;;;;;;;3.80;3.50;;;23.80;55.60;;;;;;5075268;28;20444;-67
2022/06/04 07:34:17;;;;;;;5.63;3.90;;;23.90;55.60;;;;;;5074841;28;20531;-67
2022/06/04 07:36:45;;;;;;;4.10;3.80;;;23.90;55.20;;;;;;5074911;28;20899;-67
2022/06/04 07:39:14;;;;;;;4.53;3.90;;;24.10;55.50;;;;;;5074850;28;20816;-67
2022/06/04 07:41:44;;;;;;;4.40;4.10;;;24.10;55.40;;;;;;5075067;28;20463;-67
2022/06/04 07:44:12;;;;;;;5.10;4.70;;;24.10;55.00;;;;;;5074971;28;20449;-67
2022/06/04 07:46:40;;;;;;;4.10;3.80;;;24.20;55.30;;;;;;5074940;28;20472;-68
2022/06/04 07:49:08;;;;;;;4.30;4.00;;;24.20;55.10;;;;;;5074712;28;20498;-67
2022/06/04 07:51:37;;;;;;;5.37;4.87;;;24.10;55.00;;;;;;5074889;28;20544;-67
2022/06/04 07:54:07;;;;;;;4.33;3.93;;;24.20;54.90;;;;;;5074835;28;20444;-67
2022/06/04 07:56:33;;;;;;;5.97;5.20;;;24.20;55.30;;;;;;5074722;28;20565;-67
2022/06/04 07:59:00;;;;;;;4.97;4.40;;;24.20;55.20;;;;;;5074570;28;20457;-67
2022/06/04 08:01:28;;;;;;;5.53;4.10;;;24.20;55.00;;;;;;5074563;28;20469;-67
2022/06/04 08:03:55;;;;;;;4.83;4.53;;;24.20;54.90;;;;;;5074560;28;20484;-67
2022/06/04 08:06:23;;;;;;;5.83;3.90;;;24.30;55.10;;;;;;5074820;28;20480;-67
2022/06/04 08:08:54;;;;;;;4.87;4.47;;;24.30;55.00;;;;;;5074265;28;20941;-67
2022/06/04 08:11:35;;;;;;;4.60;4.20;;;24.30;55.10;;;;;;5075282;28;20464;-67
2022/06/04 08:14:07;;;;;;;3.90;3.53;;;24.30;54.80;;;;;;5074470;28;20432;-67
2022/06/04 08:16:34;;;;;;;4.83;4.37;;;24.40;54.80;;;;;;5074040;28;20429;-67
2022/06/04 08:19:01;;;;;;;3.63;3.27;;;24.50;54.90;;;;;;5074300;28;20444;-67
2022/06/04 08:21:28;;;;;;;6.17;4.13;;;24.60;55.40;;;;;;5073865;28;20973;-67
2022/06/04 08:23:56;;;;;;;5.30;4.50;;;24.70;55.30;;;;;;5074300;28;20448;-67
2022/06/04 08:26:22;;;;;;;4.07;3.77;;;24.80;54.40;;;;;;5074278;28;20480;-67
2022/06/04 08:28:50;;;;;;;5.40;3.70;;;24.90;54.50;;;;;;5074392;28;20448;-67
2022/06/04 08:31:17;;;;;;;4.23;3.83;;;25.10;54.30;;;;;;5074355;28;20460;-67
2022/06/04 08:33:45;;;;;;;5.03;4.57;;;25.20;53.80;;;;;;5074226;28;20441;-67
2022/06/04 08:36:13;;;;;;;3.60;3.40;;;25.40;53.70;;;;;;5073722;28;20445;-67
2022/06/04 08:38:40;;;;;;;3.83;3.53;;;25.50;53.40;;;;;;5073995;28;20551;-67
2022/06/04 08:41:19;;;;;;;4.53;4.13;;;25.60;52.90;;;;;;5073799;28;20472;-67
2022/06/04 08:43:51;;;;;;;5.40;4.03;;;25.60;52.40;;;;;;5073990;28;20435;-67
2022/06/04 08:46:22;;;;;;;5.03;4.40;;;25.70;52.20;;;;;;5073789;28;20464;-67
2022/06/04 08:48:49;;;;;;;5.33;4.57;;;25.70;52.20;;;;;;5073930;28;20437;-67
2022/06/04 08:51:23;;;;;;;4.20;3.90;;;25.80;52.10;;;;;;5073827;28;20468;-68
2022/06/04 08:53:53;;;;;;;5.70;4.37;;;25.80;51.70;;;;;;5073799;28;20437;-68
2022/06/04 08:59:21;;;;;;;4.83;4.33;;;25.80;51.70;;;;;;5073574;28;20448;-68
2022/06/04 09:01:53;;;;;;;4.67;4.00;;;25.90;51.80;;;;;;5074130;28;20425;-68
2022/06/04 09:04:42;;;;;;;3.87;3.53;;;25.90;51.80;;;;;;5073979;28;20447;-67
2022/06/04 09:07:13;;;;;;;4.10;3.80;;;25.90;51.90;;;;;;5073855;28;20499;-68
2022/06/04 09:09:45;;;;;;;8.20;4.30;;;26.00;52.10;;;;;;5074480;28;20460;-68
2022/06/04 09:12:30;;;;;;;5.57;4.00;;;26.00;51.90;;;;;;5074505;28;20444;-68
2022/06/04 09:15:02;;;;;;;3.97;3.63;;;26.00;51.60;;;;;;5074567;28;20433;-68
2022/06/04 09:17:38;;;;;;;5.20;4.57;;;26.10;51.10;;;;;;5073862;28;20429;-68
2022/06/04 09:20:19;;;;;;;4.93;4.43;;;26.20;51.40;;;;;;5073458;28;20472;-68
2022/06/04 09:22:48;;;;;;;3.87;3.50;;;26.20;51.10;;;;;;5073465;28;20425;-68
2022/06/04 09:25:17;;;;;;;4.73;3.77;;;26.30;51.00;;;;;;5073231;28;20451;-68
2022/06/04 09:27:53;;;;;;;4.43;4.03;;;26.30;50.70;;;;;;5073150;28;20797;-68
2022/06/04 09:30:26;;;;;;;5.30;3.47;;;26.30;51.00;;;;;;5077867;28;20475;-67
2022/06/04 09:33:07;;;;;;;4.37;4.07;;;26.40;50.90;;;;;;5078151;28;20456;-67
2022/06/04 09:35:38;;;;;;;5.20;4.80;;;26.40;50.70;;;;;;5077734;28;20440;-67
2022/06/04 09:38:06;;;;;;;4.00;3.70;;;26.50;50.60;;;;;;5077480;28;20441;-67
2022/06/04 09:40:35;;;;;;;4.37;3.23;;;26.50;50.60;;;;;;5077084;28;21078;-67
2022/06/04 09:43:11;;;;;;;4.10;3.70;;;26.60;50.40;;;;;;5077296;28;20440;-67
2022/06/04 09:45:38;;;;;;;5.20;4.73;;;26.70;50.10;;;;;;5077281;28;20464;-67
2022/06/04 09:48:15;;;;;;;4.73;3.60;;;26.90;50.50;;;;;;5077216;28;20453;-68
2022/06/04 09:50:50;;;;;;;3.20;2.90;;;27.20;49.70;;;;;;5077314;28;20464;-68
2022/06/04 09:53:21;;;;;;;3.83;3.53;;;27.50;49.00;;;;;;5077456;28;20435;-67
2022/06/04 09:55:51;;;;;;;4.20;3.80;;;27.80;48.40;;;;;;5077260;28;20421;-67
2022/06/04 09:58:22;;;;;;;3.63;3.43;;;28.00;48.00;;;;;;5077810;28;20555;-66
2022/06/04 10:00:59;;;;;;;4.77;3.97;;;28.30;48.10;;;;;;5079637;28;20470;-66
2022/06/04 10:03:26;;;;;;;5.97;3.50;;;28.70;47.00;;;;;;5078077;28;20437;-67
2022/06/04 10:06:01;;;;;;;3.53;3.23;;;29.10;46.40;;;;;;5076805;28;20495;-67
2022/06/04 10:08:29;;;;;;;3.57;3.30;;;29.60;45.70;;;;;;5076865;28;20432;-67
2022/06/04 10:11:01;;;;;;;5.20;3.97;;;29.90;44.30;;;;;;5076372;28;20808;-67
2022/06/04 10:13:43;;;;;;;3.93;3.60;;;30.20;43.50;;;;;;5076824;28;20429;-67
2022/06/04 10:16:15;;;;;;;3.70;3.40;;;30.60;42.40;;;;;;5076720;28;20431;-67
2022/06/04 10:18:57;;;;;;;3.50;3.20;;;31.10;42.00;;;;;;5076661;28;20452;-67
2022/06/04 10:21:27;;;;;;;4.13;3.73;;;31.60;41.20;;;;;;5076255;28;20467;-67
2022/06/04 10:23:57;;;;;;;4.63;4.17;;;32.10;39.60;;;;;;5076564;28;20438;-67
2022/06/04 10:26:54;;;;;;;4.03;3.73;;;32.30;38.00;;;;;;5076432;28;20569;-67
2022/06/04 10:29:50;;;;;;;5.30;4.80;;;32.40;37.50;;;;;;5076624;28;20432;-67
2022/06/04 10:32:26;;;;;;;3.83;3.43;;;32.40;37.70;;;;;;5076418;28;20515;-67
2022/06/04 10:35:03;;;;;;;5.33;4.00;;;32.60;37.80;;;;;;5076335;28;20435;-67
2022/06/04 10:37:44;;;;;;;3.83;3.43;;;33.00;37.20;;;;;;5076437;28;20428;-67
2022/06/04 10:40:41;;;;;;;4.70;4.30;;;33.40;36.00;;;;;;5075641;28;20995;-67
2022/06/04 10:43:35;;;;;;;4.10;3.63;;;34.10;35.40;;;;;;5030688;28;20459;-67
2022/06/04 10:46:15;;;;;;;5.47;3.57;;;34.80;34.60;;;;;;5075728;28;20490;-67
2022/06/04 10:48:56;;;;;;;5.33;4.20;;;35.50;33.30;;;;;;5076204;28;20431;-67
2022/06/04 10:51:37;;;;;;;4.60;4.10;;;36.30;30.80;;;;;;5076074;28;20464;-67
2022/06/04 10:54:11;;;;;;;5.37;3.27;;;37.00;29.80;;;;;;5076240;28;20443;-67
2022/06/04 10:56:43;;;;;;;4.15;3.85;;;37.70;29.00;;;;;;5076147;28;20251;-67
2022/06/04 10:59:18;;;;;;;5.53;4.90;;;38.40;27.90;;;;;;5075642;28;20217;-67
2022/06/04 11:01:50;;;;;;;6.60;5.18;;;39.10;27.20;;;;;;5076201;28;20192;-67
2022/06/04 11:04:29;;;;;;;3.15;2.85;;;39.70;26.70;;;;;;5076269;28;20182;-67
2022/06/04 11:07:01;;;;;;;8.25;7.65;;;40.10;26.20;;;;;;5075997;28;20260;-67
2022/06/04 11:09:35;;;;;;;4.95;4.45;;;40.50;25.80;;;;;;5075740;28;20197;-67
2022/06/04 11:12:11;;;;;;;3.80;3.25;;;40.80;25.70;;;;;;5075442;28;20196;-67
2022/06/04 11:14:43;;;;;;;5.45;3.67;;;40.90;24.60;;;;;;5075662;28;20190;-68
2022/06/04 11:17:18;;;;;;;4.35;3.83;;;41.20;24.50;;;;;;5075374;28;20178;-67
2022/06/04 11:19:55;;;;;;;4.82;3.45;;;41.50;25.20;;;;;;5075590;28;20225;-67
2022/06/04 11:22:29;;;;;;;5.57;4.20;;;41.60;24.30;;;;;;5075259;28;20556;-67
2022/06/04 11:25:02;;;;;;;7.88;7.28;;;41.90;24.10;;;;;;5075475;28;20182;-67
2022/06/04 11:27:35;;;;;;;6.63;4.22;;;42.30;23.70;;;;;;5075076;28;20667;-67
2022/06/04 11:30:07;;;;;;;3.83;3.15;;;42.80;23.30;;;;;;5075296;28;20218;-67
2022/06/04 11:32:41;;;;;;;4.00;3.60;;;43.10;22.90;;;;;;5075349;28;20201;-67
2022/06/04 11:35:34;;;;;;;3.47;3.17;;;43.60;22.30;;;;;;5074893;28;20554;-68
2022/06/04 11:38:22;;;;;;;3.42;3.13;;;44.00;21.70;;;;;;5071308;28;20236;-67
2022/06/04 11:40:56;;;;;;;4.55;3.47;;;44.30;21.50;;;;;;5075165;28;20229;-68
2022/06/04 11:43:33;;;;;;;5.20;3.40;;;44.70;21.40;;;;;;5075024;28;20186;-68
2022/06/04 11:46:26;;;;;;;3.50;3.20;;;44.70;20.70;;;;;;5074673;28;20676;-68
2022/06/04 11:49:06;;;;;;;3.83;3.50;;;44.60;20.70;;;;;;5075016;28;20186;-68
2022/06/04 11:51:51;;;;;;;6.70;3.60;;;44.20;20.90;;;;;;5074165;28;20232;-68
2022/06/04 11:54:42;;;;;;;3.15;2.85;;;44.10;21.30;;;;;;5074828;28;20197;-68
2022/06/04 11:57:19;;;;;;;3.67;3.33;;;44.30;21.30;;;;;;5075009;28;20187;-68
2022/06/04 11:59:59;;;;;;;7.97;4.22;;;44.40;20.80;;;;;;5074699;28;20579;-68
2022/06/04 12:02:32;;;;;;;3.50;3.20;;;44.60;20.60;;;;;;5074662;28;20186;-67
2022/06/04 12:05:11;;;;;;;3.60;3.15;;;45.00;20.50;;;;;;5074725;28;20557;-67
2022/06/04 12:07:40;;;;;;;3.92;3.28;;;45.50;20.40;;;;;;5074335;28;20241;-68
2022/06/04 12:10:20;;;;;;;4.05;3.50;;;45.90;20.00;;;;;;5074409;28;20248;-68
2022/06/04 12:12:55;;;;;;;3.35;2.88;;;46.20;19.40;;;;;;5074549;28;20254;-67
2022/06/04 12:15:30;;;;;;;3.78;3.42;;;46.50;19.10;;;;;;5074527;28;20185;-67
2022/06/04 12:18:00;;;;;;;3.30;3.00;;;46.60;19.10;;;;;;5074409;28;20182;-68
2022/06/04 12:26:22;;;;;;;5.45;3.63;;;47.20;18.90;;;;;;5074367;28;20227;-68
2022/06/04 12:28:49;;;;;;;3.35;3.15;;;47.30;18.60;;;;;;5074407;28;20206;-68
2022/06/04 12:31:33;;;;;;;3.38;3.03;;;47.20;18.40;;;;;;5074718;28;20222;-68
2022/06/04 12:34:01;;;;;;;3.35;2.88;;;47.30;18.70;;;;;;5075264;28;20190;-68
2022/06/04 12:36:32;;;;;;;2.85;2.65;;;47.50;18.10;;;;;;5075555;28;20198;-68
2022/06/04 12:39:02;;;;;;;7.55;3.42;;;47.80;18.20;;;;;;5074913;28;20190;-68
2022/06/04 12:41:44;;;;;;;2.60;2.40;;;48.00;18.30;;;;;;5074633;28;20316;-69
2022/06/04 12:44:24;;;;;;;3.15;2.88;;;48.10;18.00;;;;;;5075048;28;20186;-68
2022/06/04 12:46:52;;;;;;;9.45;3.38;;;48.30;17.70;;;;;;5074825;28;20237;-68
2022/06/04 12:49:31;;;;;;;3.92;2.72;;;48.40;17.70;;;;;;5074181;28;20213;-68
2022/06/04 12:52:03;;;;;;;5.85;3.40;;;48.70;17.30;;;;;;5074285;28;20185;-68
2022/06/04 12:54:53;;;;;;;2.88;2.67;;;48.80;16.90;;;;;;5073794;28;20183;-69
2022/06/04 12:57:42;;;;;;;6.00;2.75;;;49.00;16.80;;;;;;5068821;28;20198;-69
2022/06/04 13:00:32;;;;;;;2.90;2.70;;;49.10;17.00;;;;;;5073376;28;20711;-69
2022/06/04 13:03:15;;;;;;;3.78;2.38;;;49.40;16.90;;;;;;5073588;28;20525;-70
2022/06/04 13:06:05;;;;;;;2.47;2.33;;;49.40;16.50;;;;;;5052745;28;20292;-69
2022/06/04 13:08:41;;;;;;;5.22;3.45;;;49.70;16.20;;;;;;5073550;28;20217;-69
2022/06/04 13:11:28;;;;;;;5.10;2.65;;;49.70;15.70;;;;;;5073528;28;20312;-70
2022/06/04 13:14:04;;;;;;;3.28;2.97;;;49.80;16.00;;;;;;5073553;28;20190;-69
2022/06/04 13:16:32;;;;;;;3.50;3.20;;;50.00;16.20;;;;;;5073204;28;20192;-69
2022/06/04 13:19:16;;;;;;;3.75;3.17;;;50.10;15.70;;;;;;5073535;28;20197;-70
2022/06/04 13:21:45;;;;;;;3.63;2.42;;;50.20;16.00;;;;;;5073590;28;20185;-70
2022/06/04 13:24:19;;;;;;;2.72;2.53;;;50.30;15.80;;;;;;5073998;28;20204;-69
2022/06/04 13:26:52;;;;;;;2.97;2.67;;;50.30;15.90;;;;;;5073435;28;20209;-70
2022/06/04 13:29:23;;;;;;;3.20;3.00;;;50.50;15.80;;;;;;5073691;28;20192;-70
2022/06/04 13:31:54;;;;;;;2.83;2.63;;;50.60;15.60;;;;;;5073502;28;20247;-70